sensor_id;sensor_type;location;lat;lon;timestamp;P1;durP1;ratioP1;P2;durP2;ratioP2
6979;SDS011;3530;52.832;10.680;2023-07-20T00:02:25;1.63;;;1.60;;
6979;SDS011;3530;52.832;10.680;2023-07-20T00:05:11;1.60;;;1.50;;
6979;SDS011;3530;52.832;10.680;2023-07-20T00:07:57;2.53;;;2.33;;
6979;SDS011;3530;52.832;10.680;2023-07-20T00:10:42;1.90;;;1.70;;
6979;SDS011;3530;52.832;10.680;2023-07-20T00:13:28;2.40;;;2.30;;
6979;SDS011;3530;52.832;10.680;2023-07-20T00:16:14;1.30;;;1.30;;
6979;SDS011;3530;52.832;10.680;2023-07-20T00:19:00;2.35;;;1.60;;
6979;SDS011;3530;52.832;10.680;2023-07-20T00:21:45;1.67;;;1.50;;
6979;SDS011;3530;52.832;10.680;2023-07-20T00:24:31;1.33;;;1.33;;
6979;SDS011;3530;52.832;10.680;2023-07-20T00:27:17;1.45;;;1.45;;
6979;SDS011;3530;52.832;10.680;2023-07-20T00:30:03;1.48;;;1.38;;
6979;SDS011;3530;52.832;10.680;2023-07-20T00:32:50;1.23;;;1.23;;
6979;SDS011;3530;52.832;10.680;2023-07-20T00:35:35;1.45;;;1.35;;
6979;SDS011;3530;52.832;10.680;2023-07-20T00:38:21;1.30;;;1.30;;
6979;SDS011;3530;52.832;10.680;2023-07-20T00:41:07;1.60;;;1.50;;
6979;SDS011;3530;52.832;10.680;2023-07-20T00:43:52;1.40;;;1.40;;
6979;SDS011;3530;52.832;10.680;2023-07-20T00:46:38;1.33;;;1.33;;
6979;SDS011;3530;52.832;10.680;2023-07-20T00:49:26;1.50;;;1.50;;
6979;SDS011;3530;52.832;10.680;2023-07-20T00:52:13;1.30;;;1.30;;
6979;SDS011;3530;52.832;10.680;2023-07-20T00:54:59;1.60;;;1.50;;
6979;SDS011;3530;52.832;10.680;2023-07-20T00:57:46;1.25;;;1.25;;
6979;SDS011;3530;52.832;10.680;2023-07-20T01:00:32;1.48;;;1.38;;
6979;SDS011;3530;52.832;10.680;2023-07-20T01:03:17;1.38;;;1.33;;
6979;SDS011;3530;52.832;10.680;2023-07-20T01:09:07;1.20;;;1.20;;
6979;SDS011;3530;52.832;10.680;2023-07-20T01:14:51;1.42;;;1.42;;
6979;SDS011;3530;52.832;10.680;2023-07-20T01:17:37;1.30;;;1.30;;
6979;SDS011;3530;52.832;10.680;2023-07-20T01:20:22;1.40;;;1.40;;
6979;SDS011;3530;52.832;10.680;2023-07-20T01:26:10;2.03;;;1.38;;
6979;SDS011;3530;52.832;10.680;2023-07-20T01:29:22;1.50;;;1.50;;
6979;SDS011;3530;52.832;10.680;2023-07-20T01:32:08;1.35;;;1.35;;
6979;SDS011;3530;52.832;10.680;2023-07-20T01:34:55;1.50;;;1.40;;
6979;SDS011;3530;52.832;10.680;2023-07-20T01:37:43;1.45;;;1.45;;
6979;SDS011;3530;52.832;10.680;2023-07-20T01:40:30;1.30;;;1.30;;
6979;SDS011;3530;52.832;10.680;2023-07-20T01:43:16;1.30;;;1.30;;
6979;SDS011;3530;52.832;10.680;2023-07-20T01:46:02;1.70;;;1.65;;
6979;SDS011;3530;52.832;10.680;2023-07-20T01:48:47;3.90;;;1.25;;
6979;SDS011;3530;52.832;10.680;2023-07-20T01:51:33;1.30;;;1.30;;
6979;SDS011;3530;52.832;10.680;2023-07-20T01:54:19;1.30;;;1.30;;
6979;SDS011;3530;52.832;10.680;2023-07-20T01:57:04;1.73;;;1.42;;
6979;SDS011;3530;52.832;10.680;2023-07-20T01:59:50;1.30;;;1.30;;
6979;SDS011;3530;52.832;10.680;2023-07-20T02:02:36;1.67;;;1.25;;
6979;SDS011;3530;52.832;10.680;2023-07-20T02:05:21;1.30;;;1.30;;
6979;SDS011;3530;52.832;10.680;2023-07-20T02:08:07;1.27;;;1.27;;
6979;SDS011;3530;52.832;10.680;2023-07-20T02:10:52;1.20;;;1.20;;
6979;SDS011;3530;52.832;10.680;2023-07-20T02:13:38;1.23;;;1.23;;
6979;SDS011;3530;52.832;10.680;2023-07-20T02:16:24;1.67;;;1.30;;
6979;SDS011;3530;52.832;10.680;2023-07-20T02:19:09;1.20;;;1.20;;
6979;SDS011;3530;52.832;10.680;2023-07-20T02:21:56;1.40;;;1.40;;
6979;SDS011;3530;52.832;10.680;2023-07-20T02:24:41;1.60;;;1.60;;
6979;SDS011;3530;52.832;10.680;2023-07-20T02:27:27;1.27;;;1.27;;
6979;SDS011;3530;52.832;10.680;2023-07-20T02:30:13;1.50;;;1.40;;
6979;SDS011;3530;52.832;10.680;2023-07-20T02:32:58;1.80;;;1.38;;
6979;SDS011;3530;52.832;10.680;2023-07-20T02:35:44;1.20;;;1.20;;
6979;SDS011;3530;52.832;10.680;2023-07-20T02:38:30;1.42;;;1.42;;
6979;SDS011;3530;52.832;10.680;2023-07-20T02:41:15;1.40;;;1.40;;
6979;SDS011;3530;52.832;10.680;2023-07-20T02:44:01;1.55;;;1.48;;
6979;SDS011;3530;52.832;10.680;2023-07-20T02:46:48;1.40;;;1.30;;
6979;SDS011;3530;52.832;10.680;2023-07-20T02:49:37;1.30;;;1.30;;
6979;SDS011;3530;52.832;10.680;2023-07-20T02:52:22;1.38;;;1.38;;
6979;SDS011;3530;52.832;10.680;2023-07-20T02:55:09;1.50;;;1.40;;
6979;SDS011;3530;52.832;10.680;2023-07-20T02:57:55;1.60;;;1.30;;
6979;SDS011;3530;52.832;10.680;2023-07-20T03:00:42;1.25;;;1.25;;
6979;SDS011;3530;52.832;10.680;2023-07-20T03:03:27;1.48;;;1.38;;
6979;SDS011;3530;52.832;10.680;2023-07-20T03:06:13;1.35;;;1.33;;
6979;SDS011;3530;52.832;10.680;2023-07-20T03:08:59;1.25;;;1.25;;
6979;SDS011;3530;52.832;10.680;2023-07-20T03:11:45;1.40;;;1.40;;
6979;SDS011;3530;52.832;10.680;2023-07-20T03:14:31;1.25;;;1.25;;
6979;SDS011;3530;52.832;10.680;2023-07-20T03:17:16;1.38;;;1.38;;
6979;SDS011;3530;52.832;10.680;2023-07-20T03:20:02;2.25;;;1.58;;
6979;SDS011;3530;52.832;10.680;2023-07-20T03:22:48;1.50;;;1.50;;
6979;SDS011;3530;52.832;10.680;2023-07-20T03:25:34;1.42;;;1.40;;
6979;SDS011;3530;52.832;10.680;2023-07-20T03:28:19;2.28;;;1.63;;
6979;SDS011;3530;52.832;10.680;2023-07-20T03:31:05;1.42;;;1.42;;
6979;SDS011;3530;52.832;10.680;2023-07-20T03:33:51;1.45;;;1.40;;
6979;SDS011;3530;52.832;10.680;2023-07-20T03:36:37;1.50;;;1.40;;
6979;SDS011;3530;52.832;10.680;2023-07-20T03:39:23;1.00;;;1.00;;
6979;SDS011;3530;52.832;10.680;2023-07-20T03:42:08;1.35;;;1.35;;
6979;SDS011;3530;52.832;10.680;2023-07-20T03:44:54;1.40;;;1.40;;
6979;SDS011;3530;52.832;10.680;2023-07-20T03:47:40;1.35;;;1.35;;
6979;SDS011;3530;52.832;10.680;2023-07-20T03:50:25;4.53;;;1.42;;
6979;SDS011;3530;52.832;10.680;2023-07-20T03:53:11;2.22;;;1.58;;
6979;SDS011;3530;52.832;10.680;2023-07-20T03:55:57;1.70;;;1.60;;
6979;SDS011;3530;52.832;10.680;2023-07-20T03:58:43;1.42;;;1.42;;
6979;SDS011;3530;52.832;10.680;2023-07-20T04:01:29;1.88;;;1.70;;
6979;SDS011;3530;52.832;10.680;2023-07-20T04:04:15;1.58;;;1.58;;
6979;SDS011;3530;52.832;10.680;2023-07-20T04:07:01;1.42;;;1.38;;
6979;SDS011;3530;52.832;10.680;2023-07-20T04:09:47;1.30;;;1.30;;
6979;SDS011;3530;52.832;10.680;2023-07-20T04:12:32;1.40;;;1.40;;
6979;SDS011;3530;52.832;10.680;2023-07-20T04:15:18;1.30;;;1.30;;
6979;SDS011;3530;52.832;10.680;2023-07-20T04:18:04;1.25;;;1.25;;
6979;SDS011;3530;52.832;10.680;2023-07-20T04:20:49;1.30;;;1.30;;
6979;SDS011;3530;52.832;10.680;2023-07-20T04:23:35;1.67;;;1.58;;
6979;SDS011;3530;52.832;10.680;2023-07-20T04:26:21;1.50;;;1.50;;
6979;SDS011;3530;52.832;10.680;2023-07-20T04:29:07;1.65;;;1.55;;
6979;SDS011;3530;52.832;10.680;2023-07-20T04:31:52;1.40;;;1.40;;
6979;SDS011;3530;52.832;10.680;2023-07-20T04:34:38;1.30;;;1.30;;
6979;SDS011;3530;52.832;10.680;2023-07-20T04:37:24;1.23;;;1.23;;
6979;SDS011;3530;52.832;10.680;2023-07-20T04:40:10;1.40;;;1.40;;
6979;SDS011;3530;52.832;10.680;2023-07-20T04:42:57;1.77;;;1.60;;
6979;SDS011;3530;52.832;10.680;2023-07-20T04:45:42;2.20;;;2.10;;
6979;SDS011;3530;52.832;10.680;2023-07-20T04:48:28;1.60;;;1.50;;
6979;SDS011;3530;52.832;10.680;2023-07-20T04:51:14;1.25;;;1.25;;
6979;SDS011;3530;52.832;10.680;2023-07-20T04:53:59;1.65;;;1.55;;
6979;SDS011;3530;52.832;10.680;2023-07-20T04:56:45;1.20;;;1.20;;
6979;SDS011;3530;52.832;10.680;2023-07-20T04:59:31;1.42;;;1.33;;
6979;SDS011;3530;52.832;10.680;2023-07-20T05:02:18;1.33;;;1.33;;
6979;SDS011;3530;52.832;10.680;2023-07-20T05:05:04;1.45;;;1.40;;
6979;SDS011;3530;52.832;10.680;2023-07-20T05:07:51;1.70;;;1.15;;
6979;SDS011;3530;52.832;10.680;2023-07-20T05:10:37;1.65;;;1.55;;
6979;SDS011;3530;52.832;10.680;2023-07-20T05:13:22;1.55;;;1.55;;
6979;SDS011;3530;52.832;10.680;2023-07-20T05:16:08;1.73;;;1.50;;
6979;SDS011;3530;52.832;10.680;2023-07-20T05:18:54;1.50;;;1.40;;
6979;SDS011;3530;52.832;10.680;2023-07-20T05:21:39;6.95;;;2.15;;
6979;SDS011;3530;52.832;10.680;2023-07-20T05:24:25;1.20;;;1.20;;
6979;SDS011;3530;52.832;10.680;2023-07-20T05:27:11;1.08;;;1.08;;
6979;SDS011;3530;52.832;10.680;2023-07-20T05:29:57;1.10;;;1.10;;
6979;SDS011;3530;52.832;10.680;2023-07-20T05:32:44;1.10;;;1.10;;
6979;SDS011;3530;52.832;10.680;2023-07-20T05:35:32;4.35;;;1.75;;
6979;SDS011;3530;52.832;10.680;2023-07-20T05:38:18;1.88;;;1.73;;
6979;SDS011;3530;52.832;10.680;2023-07-20T05:41:04;1.10;;;1.10;;
6979;SDS011;3530;52.832;10.680;2023-07-20T05:43:50;1.25;;;1.15;;
6979;SDS011;3530;52.832;10.680;2023-07-20T05:46:35;2.40;;;1.50;;
6979;SDS011;3530;52.832;10.680;2023-07-20T05:49:21;1.90;;;1.52;;
6979;SDS011;3530;52.832;10.680;2023-07-20T05:52:07;1.77;;;1.30;;
6979;SDS011;3530;52.832;10.680;2023-07-20T05:54:52;1.15;;;1.15;;
6979;SDS011;3530;52.832;10.680;2023-07-20T05:57:38;1.00;;;1.00;;
6979;SDS011;3530;52.832;10.680;2023-07-20T06:00:27;1.08;;;1.08;;
6979;SDS011;3530;52.832;10.680;2023-07-20T06:03:12;1.15;;;1.15;;
6979;SDS011;3530;52.832;10.680;2023-07-20T06:05:59;1.98;;;1.40;;
6979;SDS011;3530;52.832;10.680;2023-07-20T06:08:46;1.10;;;1.10;;
6979;SDS011;3530;52.832;10.680;2023-07-20T06:11:31;1.20;;;1.20;;
6979;SDS011;3530;52.832;10.680;2023-07-20T06:14:17;1.13;;;1.13;;
6979;SDS011;3530;52.832;10.680;2023-07-20T06:17:03;1.40;;;1.30;;
6979;SDS011;3530;52.832;10.680;2023-07-20T06:19:49;1.75;;;1.17;;
6979;SDS011;3530;52.832;10.680;2023-07-20T06:22:35;1.10;;;1.10;;
6979;SDS011;3530;52.832;10.680;2023-07-20T06:25:21;1.15;;;1.10;;
6979;SDS011;3530;52.832;10.680;2023-07-20T06:28:06;1.08;;;1.08;;
6979;SDS011;3530;52.832;10.680;2023-07-20T06:30:52;1.10;;;1.10;;
6979;SDS011;3530;52.832;10.680;2023-07-20T06:33:37;1.38;;;1.00;;
6979;SDS011;3530;52.832;10.680;2023-07-20T06:36:23;1.10;;;1.10;;
6979;SDS011;3530;52.832;10.680;2023-07-20T06:39:11;0.93;;;0.93;;
6979;SDS011;3530;52.832;10.680;2023-07-20T06:41:56;1.92;;;1.20;;
6979;SDS011;3530;52.832;10.680;2023-07-20T06:44:42;0.95;;;0.95;;
6979;SDS011;3530;52.832;10.680;2023-07-20T06:47:28;0.85;;;0.85;;
6979;SDS011;3530;52.832;10.680;2023-07-20T06:50:13;1.00;;;1.00;;
6979;SDS011;3530;52.832;10.680;2023-07-20T06:52:59;1.17;;;1.17;;
6979;SDS011;3530;52.832;10.680;2023-07-20T06:55:46;1.38;;;1.13;;
6979;SDS011;3530;52.832;10.680;2023-07-20T06:58:31;1.00;;;1.00;;
6979;SDS011;3530;52.832;10.680;2023-07-20T07:01:18;2.28;;;1.02;;
6979;SDS011;3530;52.832;10.680;2023-07-20T07:04:06;1.52;;;1.00;;
6979;SDS011;3530;52.832;10.680;2023-07-20T07:06:51;0.93;;;0.93;;
6979;SDS011;3530;52.832;10.680;2023-07-20T07:09:37;2.20;;;1.17;;
6979;SDS011;3530;52.832;10.680;2023-07-20T07:12:23;1.13;;;1.02;;
6979;SDS011;3530;52.832;10.680;2023-07-20T07:15:09;1.05;;;1.05;;
6979;SDS011;3530;52.832;10.680;2023-07-20T07:17:56;1.10;;;1.10;;
6979;SDS011;3530;52.832;10.680;2023-07-20T07:20:42;1.23;;;0.95;;
6979;SDS011;3530;52.832;10.680;2023-07-20T07:23:35;4.55;;;1.17;;
6979;SDS011;3530;52.832;10.680;2023-07-20T07:26:23;0.90;;;0.90;;
6979;SDS011;3530;52.832;10.680;2023-07-20T07:29:09;0.98;;;0.98;;
6979;SDS011;3530;52.832;10.680;2023-07-20T07:31:55;2.25;;;1.20;;
6979;SDS011;3530;52.832;10.680;2023-07-20T07:34:40;1.08;;;0.95;;
6979;SDS011;3530;52.832;10.680;2023-07-20T07:37:26;1.00;;;1.00;;
6979;SDS011;3530;52.832;10.680;2023-07-20T07:40:12;0.90;;;0.90;;
6979;SDS011;3530;52.832;10.680;2023-07-20T07:42:57;0.90;;;0.90;;
6979;SDS011;3530;52.832;10.680;2023-07-20T07:45:43;1.73;;;1.10;;
6979;SDS011;3530;52.832;10.680;2023-07-20T07:48:29;1.00;;;1.00;;
6979;SDS011;3530;52.832;10.680;2023-07-20T07:51:15;1.00;;;1.00;;
6979;SDS011;3530;52.832;10.680;2023-07-20T07:54:00;1.10;;;1.10;;
6979;SDS011;3530;52.832;10.680;2023-07-20T07:56:46;1.25;;;0.98;;
6979;SDS011;3530;52.832;10.680;2023-07-20T07:59:32;0.80;;;0.80;;
6979;SDS011;3530;52.832;10.680;2023-07-20T08:02:21;1.00;;;1.00;;
6979;SDS011;3530;52.832;10.680;2023-07-20T08:05:07;0.88;;;0.88;;
6979;SDS011;3530;52.832;10.680;2023-07-20T08:07:53;3.55;;;0.82;;
6979;SDS011;3530;52.832;10.680;2023-07-20T08:10:39;0.90;;;0.90;;
6979;SDS011;3530;52.832;10.680;2023-07-20T08:13:24;0.80;;;0.80;;
6979;SDS011;3530;52.832;10.680;2023-07-20T08:16:10;1.08;;;1.08;;
6979;SDS011;3530;52.832;10.680;2023-07-20T08:18:56;0.85;;;0.85;;
6979;SDS011;3530;52.832;10.680;2023-07-20T08:21:41;1.98;;;1.20;;
6979;SDS011;3530;52.832;10.680;2023-07-20T08:24:27;0.80;;;0.80;;
6979;SDS011;3530;52.832;10.680;2023-07-20T08:27:13;1.52;;;1.00;;
6979;SDS011;3530;52.832;10.680;2023-07-20T08:29:58;0.77;;;0.77;;
6979;SDS011;3530;52.832;10.680;2023-07-20T08:32:44;0.93;;;0.93;;
6979;SDS011;3530;52.832;10.680;2023-07-20T08:35:30;0.80;;;0.80;;
6979;SDS011;3530;52.832;10.680;2023-07-20T08:38:15;0.80;;;0.80;;
6979;SDS011;3530;52.832;10.680;2023-07-20T08:41:01;1.13;;;1.00;;
6979;SDS011;3530;52.832;10.680;2023-07-20T08:43:47;0.90;;;0.90;;
6979;SDS011;3530;52.832;10.680;2023-07-20T08:46:33;0.90;;;0.90;;
6979;SDS011;3530;52.832;10.680;2023-07-20T08:49:19;2.70;;;1.00;;
6979;SDS011;3530;52.832;10.680;2023-07-20T08:52:04;0.98;;;0.98;;
6979;SDS011;3530;52.832;10.680;2023-07-20T08:54:50;1.25;;;0.80;;
6979;SDS011;3530;52.832;10.680;2023-07-20T08:57:38;2.05;;;1.10;;
6979;SDS011;3530;52.832;10.680;2023-07-20T09:00:25;2.30;;;0.90;;
6979;SDS011;3530;52.832;10.680;2023-07-20T09:03:12;1.13;;;1.10;;
6979;SDS011;3530;52.832;10.680;2023-07-20T09:05:58;1.10;;;1.10;;
6979;SDS011;3530;52.832;10.680;2023-07-20T09:08:44;1.23;;;1.15;;
6979;SDS011;3530;52.832;10.680;2023-07-20T09:11:29;1.08;;;1.08;;
6979;SDS011;3530;52.832;10.680;2023-07-20T09:14:15;1.35;;;1.02;;
6979;SDS011;3530;52.832;10.680;2023-07-20T09:17:02;1.58;;;1.45;;
6979;SDS011;3530;52.832;10.680;2023-07-20T09:19:47;1.02;;;1.02;;
6979;SDS011;3530;52.832;10.680;2023-07-20T09:22:34;0.80;;;0.80;;
6979;SDS011;3530;52.832;10.680;2023-07-20T09:25:19;0.90;;;0.90;;
6979;SDS011;3530;52.832;10.680;2023-07-20T09:28:05;1.00;;;1.00;;
6979;SDS011;3530;52.832;10.680;2023-07-20T09:30:51;1.08;;;0.98;;
6979;SDS011;3530;52.832;10.680;2023-07-20T09:33:38;0.82;;;0.82;;
6979;SDS011;3530;52.832;10.680;2023-07-20T09:36:26;1.00;;;1.00;;
6979;SDS011;3530;52.832;10.680;2023-07-20T09:39:12;1.00;;;1.00;;
6979;SDS011;3530;52.832;10.680;2023-07-20T09:42:00;2.03;;;0.80;;
6979;SDS011;3530;52.832;10.680;2023-07-20T09:44:47;0.85;;;0.85;;
6979;SDS011;3530;52.832;10.680;2023-07-20T09:47:34;1.10;;;0.90;;
6979;SDS011;3530;52.832;10.680;2023-07-20T09:50:21;1.20;;;1.10;;
6979;SDS011;3530;52.832;10.680;2023-07-20T09:53:11;0.90;;;0.90;;
6979;SDS011;3530;52.832;10.680;2023-07-20T09:55:58;1.20;;;1.00;;
6979;SDS011;3530;52.832;10.680;2023-07-20T09:58:44;0.90;;;0.90;;
6979;SDS011;3530;52.832;10.680;2023-07-20T10:01:30;1.00;;;1.00;;
6979;SDS011;3530;52.832;10.680;2023-07-20T10:04:19;8.85;;;1.17;;
6979;SDS011;3530;52.832;10.680;2023-07-20T10:07:08;5.22;;;1.10;;
6979;SDS011;3530;52.832;10.680;2023-07-20T10:09:56;2.03;;;1.10;;
6979;SDS011;3530;52.832;10.680;2023-07-20T10:12:46;1.00;;;1.00;;
6979;SDS011;3530;52.832;10.680;2023-07-20T10:15:34;0.90;;;0.90;;
6979;SDS011;3530;52.832;10.680;2023-07-20T10:18:23;0.98;;;0.98;;
6979;SDS011;3530;52.832;10.680;2023-07-20T10:21:14;1.00;;;0.90;;
6979;SDS011;3530;52.832;10.680;2023-07-20T10:24:02;0.80;;;0.80;;
6979;SDS011;3530;52.832;10.680;2023-07-20T10:26:48;1.30;;;1.20;;
6979;SDS011;3530;52.832;10.680;2023-07-20T10:29:34;0.88;;;0.88;;
6979;SDS011;3530;52.832;10.680;2023-07-20T10:32:20;1.05;;;1.05;;
6979;SDS011;3530;52.832;10.680;2023-07-20T10:35:13;1.00;;;1.00;;
6979;SDS011;3530;52.832;10.680;2023-07-20T10:38:04;0.85;;;0.85;;
6979;SDS011;3530;52.832;10.680;2023-07-20T10:40:56;1.70;;;0.93;;
6979;SDS011;3530;52.832;10.680;2023-07-20T10:43:42;1.27;;;0.90;;
6979;SDS011;3530;52.832;10.680;2023-07-20T10:46:44;1.70;;;0.93;;
6979;SDS011;3530;52.832;10.680;2023-07-20T10:49:35;1.13;;;1.10;;
6979;SDS011;3530;52.832;10.680;2023-07-20T10:52:21;0.90;;;0.90;;
6979;SDS011;3530;52.832;10.680;2023-07-20T10:55:10;1.65;;;1.00;;
6979;SDS011;3530;52.832;10.680;2023-07-20T10:58:08;0.98;;;0.90;;
6979;SDS011;3530;52.832;10.680;2023-07-20T11:00:56;1.38;;;0.95;;
6979;SDS011;3530;52.832;10.680;2023-07-20T11:03:49;1.23;;;0.80;;
6979;SDS011;3530;52.832;10.680;2023-07-20T11:06:36;2.85;;;1.05;;
6979;SDS011;3530;52.832;10.680;2023-07-20T11:09:23;1.15;;;1.15;;
6979;SDS011;3530;52.832;10.680;2023-07-20T11:12:11;1.65;;;1.20;;
6979;SDS011;3530;52.832;10.680;2023-07-20T11:14:59;1.08;;;1.00;;
6979;SDS011;3530;52.832;10.680;2023-07-20T11:17:44;1.15;;;1.05;;
6979;SDS011;3530;52.832;10.680;2023-07-20T11:20:30;2.53;;;1.20;;
6979;SDS011;3530;52.832;10.680;2023-07-20T11:23:16;3.60;;;1.17;;
6979;SDS011;3530;52.832;10.680;2023-07-20T11:26:01;1.10;;;1.10;;
6979;SDS011;3530;52.832;10.680;2023-07-20T11:28:49;1.30;;;1.20;;
6979;SDS011;3530;52.832;10.680;2023-07-20T11:31:37;1.52;;;1.30;;
6979;SDS011;3530;52.832;10.680;2023-07-20T11:34:24;1.48;;;1.38;;
6979;SDS011;3530;52.832;10.680;2023-07-20T11:37:09;1.30;;;1.30;;
6979;SDS011;3530;52.832;10.680;2023-07-20T11:39:56;4.82;;;1.42;;
6979;SDS011;3530;52.832;10.680;2023-07-20T11:42:42;3.75;;;1.67;;
6979;SDS011;3530;52.832;10.680;2023-07-20T11:45:28;1.23;;;1.23;;
6979;SDS011;3530;52.832;10.680;2023-07-20T11:48:18;1.27;;;1.17;;
6979;SDS011;3530;52.832;10.680;2023-07-20T11:51:03;1.27;;;1.08;;
6979;SDS011;3530;52.832;10.680;2023-07-20T11:53:50;1.40;;;1.30;;
6979;SDS011;3530;52.832;10.680;2023-07-20T11:56:36;1.13;;;1.10;;
6979;SDS011;3530;52.832;10.680;2023-07-20T11:59:21;1.50;;;1.40;;
6979;SDS011;3530;52.832;10.680;2023-07-20T12:02:07;1.13;;;1.10;;
6979;SDS011;3530;52.832;10.680;2023-07-20T12:04:56;2.15;;;1.38;;
6979;SDS011;3530;52.832;10.680;2023-07-20T12:07:42;1.40;;;1.40;;
6979;SDS011;3530;52.832;10.680;2023-07-20T12:10:29;1.25;;;1.17;;
6979;SDS011;3530;52.832;10.680;2023-07-20T12:13:15;1.00;;;1.00;;
6979;SDS011;3530;52.832;10.680;2023-07-20T12:16:06;1.83;;;1.60;;
6979;SDS011;3530;52.832;10.680;2023-07-20T12:19:02;5.03;;;1.50;;
6979;SDS011;3530;52.832;10.680;2023-07-20T12:21:49;1.60;;;1.50;;
6979;SDS011;3530;52.832;10.680;2023-07-20T12:24:35;1.75;;;1.23;;
6979;SDS011;3530;52.832;10.680;2023-07-20T12:27:21;1.20;;;1.20;;
6979;SDS011;3530;52.832;10.680;2023-07-20T12:30:07;1.23;;;1.20;;
6979;SDS011;3530;52.832;10.680;2023-07-20T12:32:53;1.45;;;1.30;;
6979;SDS011;3530;52.832;10.680;2023-07-20T12:35:39;1.65;;;1.48;;
6979;SDS011;3530;52.832;10.680;2023-07-20T12:38:25;1.50;;;1.08;;
6979;SDS011;3530;52.832;10.680;2023-07-20T12:41:12;1.95;;;1.50;;
6979;SDS011;3530;52.832;10.680;2023-07-20T12:43:59;1.63;;;1.23;;
6979;SDS011;3530;52.832;10.680;2023-07-20T12:46:45;1.70;;;1.58;;
6979;SDS011;3530;52.832;10.680;2023-07-20T12:49:31;1.23;;;1.23;;
6979;SDS011;3530;52.832;10.680;2023-07-20T12:52:17;1.50;;;1.40;;
6979;SDS011;3530;52.832;10.680;2023-07-20T12:55:03;2.58;;;1.38;;
6979;SDS011;3530;52.832;10.680;2023-07-20T12:57:48;2.13;;;1.23;;
6979;SDS011;3530;52.832;10.680;2023-07-20T13:00:34;1.27;;;1.20;;
6979;SDS011;3530;52.832;10.680;2023-07-20T13:03:20;1.10;;;1.10;;
6979;SDS011;3530;52.832;10.680;2023-07-20T13:06:06;1.33;;;1.23;;
6979;SDS011;3530;52.832;10.680;2023-07-20T13:08:51;1.48;;;1.38;;
6979;SDS011;3530;52.832;10.680;2023-07-20T13:11:40;1.60;;;1.45;;
6979;SDS011;3530;52.832;10.680;2023-07-20T13:14:26;1.52;;;1.48;;
6979;SDS011;3530;52.832;10.680;2023-07-20T13:17:12;1.75;;;1.65;;
6979;SDS011;3530;52.832;10.680;2023-07-20T13:19:57;1.20;;;1.10;;
6979;SDS011;3530;52.832;10.680;2023-07-20T13:22:43;1.40;;;1.20;;
6979;SDS011;3530;52.832;10.680;2023-07-20T13:25:29;1.30;;;1.27;;
6979;SDS011;3530;52.832;10.680;2023-07-20T13:28:14;1.30;;;1.27;;
6979;SDS011;3530;52.832;10.680;2023-07-20T13:31:00;1.45;;;1.42;;
6979;SDS011;3530;52.832;10.680;2023-07-20T13:33:46;1.10;;;1.10;;
6979;SDS011;3530;52.832;10.680;2023-07-20T13:36:31;1.40;;;1.30;;
6979;SDS011;3530;52.832;10.680;2023-07-20T13:39:17;1.40;;;1.30;;
6979;SDS011;3530;52.832;10.680;2023-07-20T13:42:03;0.90;;;0.90;;
6979;SDS011;3530;52.832;10.680;2023-07-20T13:44:50;1.25;;;1.25;;
6979;SDS011;3530;52.832;10.680;2023-07-20T13:47:36;2.75;;;1.40;;
6979;SDS011;3530;52.832;10.680;2023-07-20T13:50:22;1.40;;;1.30;;
6979;SDS011;3530;52.832;10.680;2023-07-20T13:53:07;1.00;;;1.00;;
6979;SDS011;3530;52.832;10.680;2023-07-20T13:55:53;1.52;;;1.10;;
6979;SDS011;3530;52.832;10.680;2023-07-20T13:58:39;1.10;;;1.10;;
6979;SDS011;3530;52.832;10.680;2023-07-20T14:01:24;1.83;;;1.30;;
6979;SDS011;3530;52.832;10.680;2023-07-20T14:04:10;1.15;;;1.15;;
6979;SDS011;3530;52.832;10.680;2023-07-20T14:06:56;1.98;;;1.10;;
6979;SDS011;3530;52.832;10.680;2023-07-20T14:09:41;1.67;;;0.98;;
6979;SDS011;3530;52.832;10.680;2023-07-20T14:12:27;1.15;;;1.02;;
6979;SDS011;3530;52.832;10.680;2023-07-20T14:15:13;1.05;;;1.02;;
6979;SDS011;3530;52.832;10.680;2023-07-20T14:17:58;1.05;;;1.05;;
6979;SDS011;3530;52.832;10.680;2023-07-20T14:20:44;0.95;;;0.95;;
6979;SDS011;3530;52.832;10.680;2023-07-20T14:23:30;1.00;;;1.00;;
6979;SDS011;3530;52.832;10.680;2023-07-20T14:26:16;0.90;;;0.90;;
6979;SDS011;3530;52.832;10.680;2023-07-20T14:29:01;1.77;;;1.20;;
6979;SDS011;3530;52.832;10.680;2023-07-20T14:31:47;1.35;;;1.30;;
6979;SDS011;3530;52.832;10.680;2023-07-20T14:34:37;1.00;;;1.00;;
6979;SDS011;3530;52.832;10.680;2023-07-20T14:37:23;1.73;;;1.30;;
6979;SDS011;3530;52.832;10.680;2023-07-20T14:40:09;0.95;;;0.90;;
6979;SDS011;3530;52.832;10.680;2023-07-20T14:42:55;1.33;;;1.02;;
6979;SDS011;3530;52.832;10.680;2023-07-20T14:45:41;1.73;;;1.00;;
6979;SDS011;3530;52.832;10.680;2023-07-20T14:48:27;1.17;;;1.10;;
6979;SDS011;3530;52.832;10.680;2023-07-20T14:51:13;1.17;;;1.17;;
6979;SDS011;3530;52.832;10.680;2023-07-20T14:53:59;2.08;;;1.00;;
6979;SDS011;3530;52.832;10.680;2023-07-20T14:56:49;4.82;;;1.17;;
6979;SDS011;3530;52.832;10.680;2023-07-20T14:59:38;1.38;;;1.27;;
6979;SDS011;3530;52.832;10.680;2023-07-20T15:02:23;1.10;;;1.10;;
6979;SDS011;3530;52.832;10.680;2023-07-20T15:05:10;1.75;;;1.05;;
6979;SDS011;3530;52.832;10.680;2023-07-20T15:07:56;1.10;;;1.00;;
6979;SDS011;3530;52.832;10.680;2023-07-20T15:10:41;0.98;;;0.98;;
6979;SDS011;3530;52.832;10.680;2023-07-20T15:13:29;3.08;;;1.33;;
6979;SDS011;3530;52.832;10.680;2023-07-20T15:16:15;1.42;;;1.20;;
6979;SDS011;3530;52.832;10.680;2023-07-20T15:19:00;1.73;;;1.55;;
6979;SDS011;3530;52.832;10.680;2023-07-20T15:21:46;0.88;;;0.88;;
6979;SDS011;3530;52.832;10.680;2023-07-20T15:24:32;1.15;;;0.98;;
6979;SDS011;3530;52.832;10.680;2023-07-20T15:27:18;1.10;;;1.00;;
6979;SDS011;3530;52.832;10.680;2023-07-20T15:30:05;1.58;;;1.00;;
6979;SDS011;3530;52.832;10.680;2023-07-20T15:32:51;1.25;;;1.20;;
6979;SDS011;3530;52.832;10.680;2023-07-20T15:35:37;1.00;;;1.00;;
6979;SDS011;3530;52.832;10.680;2023-07-20T15:38:23;3.40;;;1.17;;
6979;SDS011;3530;52.832;10.680;2023-07-20T15:41:09;0.95;;;0.88;;
6979;SDS011;3530;52.832;10.680;2023-07-20T15:43:55;1.10;;;1.10;;
6979;SDS011;3530;52.832;10.680;2023-07-20T15:49:27;1.83;;;1.20;;
6979;SDS011;3530;52.832;10.680;2023-07-20T15:52:13;1.70;;;0.93;;
6979;SDS011;3530;52.832;10.680;2023-07-20T15:54:58;0.90;;;0.85;;
6979;SDS011;3530;52.832;10.680;2023-07-20T15:57:44;0.95;;;0.95;;
6979;SDS011;3530;52.832;10.680;2023-07-20T16:00:30;0.93;;;0.93;;
6979;SDS011;3530;52.832;10.680;2023-07-20T16:03:15;1.25;;;1.10;;
6979;SDS011;3530;52.832;10.680;2023-07-20T16:06:01;1.35;;;1.10;;
6979;SDS011;3530;52.832;10.680;2023-07-20T16:08:49;1.13;;;1.00;;
6979;SDS011;3530;52.832;10.680;2023-07-20T16:11:36;1.05;;;1.05;;
6979;SDS011;3530;52.832;10.680;2023-07-20T16:14:21;1.08;;;1.08;;
6979;SDS011;3530;52.832;10.680;2023-07-20T16:17:07;3.03;;;1.08;;
6979;SDS011;3530;52.832;10.680;2023-07-20T16:19:53;0.93;;;0.93;;
6979;SDS011;3530;52.832;10.680;2023-07-20T16:22:39;1.80;;;0.90;;
6979;SDS011;3530;52.832;10.680;2023-07-20T16:25:24;1.50;;;0.98;;
6979;SDS011;3530;52.832;10.680;2023-07-20T16:28:10;0.95;;;0.90;;
6979;SDS011;3530;52.832;10.680;2023-07-20T16:30:55;1.17;;;0.90;;
6979;SDS011;3530;52.832;10.680;2023-07-20T16:33:43;1.10;;;0.80;;
6979;SDS011;3530;52.832;10.680;2023-07-20T16:36:29;1.30;;;1.20;;
6979;SDS011;3530;52.832;10.680;2023-07-20T16:39:17;0.90;;;0.90;;
6979;SDS011;3530;52.832;10.680;2023-07-20T16:42:03;1.80;;;0.82;;
6979;SDS011;3530;52.832;10.680;2023-07-20T16:44:49;1.30;;;1.20;;
6979;SDS011;3530;52.832;10.680;2023-07-20T16:47:36;0.93;;;0.93;;
6979;SDS011;3530;52.832;10.680;2023-07-20T16:50:21;1.48;;;0.80;;
6979;SDS011;3530;52.832;10.680;2023-07-20T16:53:07;1.88;;;0.80;;
6979;SDS011;3530;52.832;10.680;2023-07-20T16:55:53;1.20;;;1.00;;
6979;SDS011;3530;52.832;10.680;2023-07-20T16:58:40;1.40;;;1.05;;
6979;SDS011;3530;52.832;10.680;2023-07-20T17:01:26;0.80;;;0.80;;
6979;SDS011;3530;52.832;10.680;2023-07-20T17:04:12;1.27;;;0.80;;
6979;SDS011;3530;52.832;10.680;2023-07-20T17:07:00;1.83;;;1.08;;
6979;SDS011;3530;52.832;10.680;2023-07-20T17:09:46;1.13;;;1.02;;